sensor_id;sensor_type;location;lat;lon;timestamp;P1;durP1;ratioP1;P2;durP2;ratioP2
65150;SDS011;51918;51.856;0.150;2023-02-08T00:00:14;36.10;;;17.58;;
65150;SDS011;51918;51.856;0.150;2023-02-08T00:05:15;39.53;;;18.95;;
65150;SDS011;51918;51.856;0.150;2023-02-08T00:10:17;40.22;;;17.92;;
65150;SDS011;51918;51.856;0.150;2023-02-08T00:15:18;40.70;;;20.27;;
65150;SDS011;51918;51.856;0.150;2023-02-08T00:20:19;47.90;;;19.38;;
65150;SDS011;51918;51.856;0.150;2023-02-08T00:25:21;35.58;;;19.52;;
65150;SDS011;51918;51.856;0.150;2023-02-08T00:30:21;42.67;;;19.35;;
65150;SDS011;51918;51.856;0.150;2023-02-08T00:35:22;43.72;;;18.20;;
65150;SDS011;51918;51.856;0.150;2023-02-08T00:40:24;50.95;;;22.60;;
65150;SDS011;51918;51.856;0.150;2023-02-08T00:45:26;50.40;;;21.58;;
65150;SDS011;51918;51.856;0.150;2023-02-08T00:50:26;58.60;;;19.77;;
65150;SDS011;51918;51.856;0.150;2023-02-08T00:55:28;61.63;;;22.02;;
65150;SDS011;51918;51.856;0.150;2023-02-08T01:00:29;78.50;;;27.05;;
65150;SDS011;51918;51.856;0.150;2023-02-08T01:05:30;73.45;;;22.88;;
65150;SDS011;51918;51.856;0.150;2023-02-08T01:10:32;52.13;;;23.25;;
65150;SDS011;51918;51.856;0.150;2023-02-08T01:15:33;48.75;;;21.88;;
65150;SDS011;51918;51.856;0.150;2023-02-08T01:20:34;58.13;;;20.55;;
65150;SDS011;51918;51.856;0.150;2023-02-08T01:25:36;61.50;;;22.42;;
65150;SDS011;51918;51.856;0.150;2023-02-08T01:30:37;56.35;;;20.52;;
65150;SDS011;51918;51.856;0.150;2023-02-08T01:35:38;62.40;;;24.02;;
65150;SDS011;51918;51.856;0.150;2023-02-08T01:40:40;60.97;;;21.95;;
65150;SDS011;51918;51.856;0.150;2023-02-08T01:45:40;57.35;;;18.38;;
65150;SDS011;51918;51.856;0.150;2023-02-08T01:50:42;64.95;;;20.17;;
65150;SDS011;51918;51.856;0.150;2023-02-08T01:55:51;59.20;;;19.35;;
65150;SDS011;51918;51.856;0.150;2023-02-08T02:00:54;46.08;;;17.70;;
65150;SDS011;51918;51.856;0.150;2023-02-08T02:05:56;72.47;;;21.38;;
65150;SDS011;51918;51.856;0.150;2023-02-08T02:11:06;45.53;;;15.40;;
65150;SDS011;51918;51.856;0.150;2023-02-08T02:16:06;41.17;;;14.95;;
65150;SDS011;51918;51.856;0.150;2023-02-08T02:21:11;39.00;;;15.02;;
65150;SDS011;51918;51.856;0.150;2023-02-08T02:26:29;30.92;;;11.02;;
65150;SDS011;51918;51.856;0.150;2023-02-08T02:32:11;31.17;;;12.30;;
65150;SDS011;51918;51.856;0.150;2023-02-08T02:37:33;31.52;;;10.93;;
65150;SDS011;51918;51.856;0.150;2023-02-08T02:42:47;23.60;;;10.65;;
65150;SDS011;51918;51.856;0.150;2023-02-08T02:48:01;23.88;;;10.10;;
65150;SDS011;51918;51.856;0.150;2023-02-08T02:53:09;32.42;;;10.73;;
65150;SDS011;51918;51.856;0.150;2023-02-08T02:58:17;34.00;;;11.48;;
65150;SDS011;51918;51.856;0.150;2023-02-08T03:03:23;23.23;;;8.68;;
65150;SDS011;51918;51.856;0.150;2023-02-08T03:08:29;26.77;;;11.38;;
65150;SDS011;51918;51.856;0.150;2023-02-08T03:13:51;34.58;;;13.15;;
65150;SDS011;51918;51.856;0.150;2023-02-08T03:19:04;29.65;;;11.70;;
65150;SDS011;51918;51.856;0.150;2023-02-08T03:24:13;43.63;;;13.30;;
65150;SDS011;51918;51.856;0.150;2023-02-08T03:29:24;41.05;;;12.27;;
65150;SDS011;51918;51.856;0.150;2023-02-08T03:34:35;34.30;;;10.75;;
65150;SDS011;51918;51.856;0.150;2023-02-08T03:39:45;39.00;;;11.10;;
65150;SDS011;51918;51.856;0.150;2023-02-08T03:44:49;51.95;;;16.30;;
65150;SDS011;51918;51.856;0.150;2023-02-08T03:49:56;32.25;;;11.73;;
65150;SDS011;51918;51.856;0.150;2023-02-08T03:55:02;44.53;;;11.82;;
65150;SDS011;51918;51.856;0.150;2023-02-08T04:00:07;36.33;;;10.98;;
65150;SDS011;51918;51.856;0.150;2023-02-08T04:05:11;29.67;;;10.27;;
65150;SDS011;51918;51.856;0.150;2023-02-08T04:10:12;36.70;;;12.85;;
65150;SDS011;51918;51.856;0.150;2023-02-08T04:15:13;43.63;;;13.90;;
65150;SDS011;51918;51.856;0.150;2023-02-08T04:20:15;69.38;;;19.63;;
65150;SDS011;51918;51.856;0.150;2023-02-08T04:25:16;43.05;;;12.30;;
65150;SDS011;51918;51.856;0.150;2023-02-08T04:30:16;31.30;;;11.85;;
65150;SDS011;51918;51.856;0.150;2023-02-08T04:35:19;26.30;;;9.73;;
65150;SDS011;51918;51.856;0.150;2023-02-08T04:40:19;31.85;;;13.38;;
65150;SDS011;51918;51.856;0.150;2023-02-08T04:45:20;34.53;;;11.75;;
65150;SDS011;51918;51.856;0.150;2023-02-08T04:50:22;32.17;;;12.23;;
65150;SDS011;51918;51.856;0.150;2023-02-08T04:55:22;26.42;;;10.57;;
65150;SDS011;51918;51.856;0.150;2023-02-08T05:00:23;35.78;;;12.15;;
65150;SDS011;51918;51.856;0.150;2023-02-08T05:05:25;51.00;;;13.43;;
65150;SDS011;51918;51.856;0.150;2023-02-08T05:10:26;30.70;;;11.00;;
65150;SDS011;51918;51.856;0.150;2023-02-08T05:15:26;40.92;;;13.85;;
65150;SDS011;51918;51.856;0.150;2023-02-08T05:20:28;39.10;;;10.95;;
65150;SDS011;51918;51.856;0.150;2023-02-08T05:25:29;30.50;;;11.13;;
65150;SDS011;51918;51.856;0.150;2023-02-08T05:30:30;23.77;;;10.13;;
65150;SDS011;51918;51.856;0.150;2023-02-08T05:35:32;51.03;;;12.57;;
65150;SDS011;51918;51.856;0.150;2023-02-08T05:40:33;27.92;;;10.20;;
65150;SDS011;51918;51.856;0.150;2023-02-08T05:45:34;39.45;;;12.73;;
65150;SDS011;51918;51.856;0.150;2023-02-08T05:50:36;30.48;;;11.95;;
65150;SDS011;51918;51.856;0.150;2023-02-08T05:55:37;35.85;;;13.32;;
65150;SDS011;51918;51.856;0.150;2023-02-08T06:00:37;34.08;;;13.32;;
65150;SDS011;51918;51.856;0.150;2023-02-08T06:05:40;32.25;;;11.60;;
65150;SDS011;51918;51.856;0.150;2023-02-08T06:10:41;38.40;;;11.23;;
65150;SDS011;51918;51.856;0.150;2023-02-08T06:15:42;26.40;;;10.68;;
65150;SDS011;51918;51.856;0.150;2023-02-08T06:20:44;49.35;;;13.98;;
65150;SDS011;51918;51.856;0.150;2023-02-08T06:25:44;23.58;;;9.98;;
65150;SDS011;51918;51.856;0.150;2023-02-08T06:30:47;15.88;;;7.93;;
65150;SDS011;51918;51.856;0.150;2023-02-08T06:35:51;73.82;;;12.93;;
65150;SDS011;51918;51.856;0.150;2023-02-08T06:40:52;57.53;;;12.88;;
65150;SDS011;51918;51.856;0.150;2023-02-08T06:45:52;45.40;;;11.10;;
65150;SDS011;51918;51.856;0.150;2023-02-08T06:50:55;25.80;;;11.05;;
65150;SDS011;51918;51.856;0.150;2023-02-08T06:55:55;32.88;;;11.05;;
65150;SDS011;51918;51.856;0.150;2023-02-08T07:00:56;35.40;;;10.75;;
65150;SDS011;51918;51.856;0.150;2023-02-08T07:05:58;21.08;;;9.05;;
65150;SDS011;51918;51.856;0.150;2023-02-08T07:10:58;19.63;;;8.77;;
65150;SDS011;51918;51.856;0.150;2023-02-08T07:15:59;24.88;;;10.48;;
65150;SDS011;51918;51.856;0.150;2023-02-08T07:21:01;24.80;;;9.85;;
65150;SDS011;51918;51.856;0.150;2023-02-08T07:26:03;30.75;;;10.98;;
65150;SDS011;51918;51.856;0.150;2023-02-08T07:36:08;20.77;;;9.38;;
65150;SDS011;51918;51.856;0.150;2023-02-08T07:41:10;21.33;;;9.05;;
65150;SDS011;51918;51.856;0.150;2023-02-08T07:46:13;20.73;;;8.38;;
65150;SDS011;51918;51.856;0.150;2023-02-08T07:51:17;19.33;;;8.68;;
65150;SDS011;51918;51.856;0.150;2023-02-08T07:56:18;20.50;;;8.07;;
65150;SDS011;51918;51.856;0.150;2023-02-08T08:01:18;25.02;;;9.80;;
65150;SDS011;51918;51.856;0.150;2023-02-08T08:06:21;22.27;;;8.82;;
65150;SDS011;51918;51.856;0.150;2023-02-08T08:11:22;20.10;;;7.68;;
65150;SDS011;51918;51.856;0.150;2023-02-08T08:16:23;16.00;;;7.30;;
65150;SDS011;51918;51.856;0.150;2023-02-08T08:21:25;17.35;;;8.27;;
65150;SDS011;51918;51.856;0.150;2023-02-08T08:26:25;18.10;;;8.02;;
65150;SDS011;51918;51.856;0.150;2023-02-08T08:31:26;22.80;;;8.90;;
65150;SDS011;51918;51.856;0.150;2023-02-08T08:36:28;19.98;;;9.23;;
65150;SDS011;51918;51.856;0.150;2023-02-08T08:41:29;18.58;;;8.35;;
65150;SDS011;51918;51.856;0.150;2023-02-08T08:46:29;22.02;;;8.77;;
65150;SDS011;51918;51.856;0.150;2023-02-08T08:51:32;18.50;;;8.27;;
65150;SDS011;51918;51.856;0.150;2023-02-08T08:56:32;19.60;;;8.60;;
65150;SDS011;51918;51.856;0.150;2023-02-08T09:01:33;18.25;;;8.85;;
65150;SDS011;51918;51.856;0.150;2023-02-08T09:06:35;20.08;;;8.93;;
65150;SDS011;51918;51.856;0.150;2023-02-08T09:11:36;24.50;;;9.73;;
65150;SDS011;51918;51.856;0.150;2023-02-08T09:16:36;20.52;;;9.65;;
65150;SDS011;51918;51.856;0.150;2023-02-08T09:21:40;20.75;;;11.05;;
65150;SDS011;51918;51.856;0.150;2023-02-08T09:26:41;23.42;;;9.90;;
65150;SDS011;51918;51.856;0.150;2023-02-08T09:31:42;22.38;;;10.32;;
65150;SDS011;51918;51.856;0.150;2023-02-08T09:36:44;21.52;;;9.50;;
65150;SDS011;51918;51.856;0.150;2023-02-08T09:41:53;21.20;;;11.10;;
65150;SDS011;51918;51.856;0.150;2023-02-08T09:47:13;20.38;;;9.68;;
65150;SDS011;51918;51.856;0.150;2023-02-08T09:52:20;20.38;;;9.45;;
65150;SDS011;51918;51.856;0.150;2023-02-08T09:57:26;21.48;;;9.43;;
65150;SDS011;51918;51.856;0.150;2023-02-08T10:02:31;22.77;;;10.38;;
65150;SDS011;51918;51.856;0.150;2023-02-08T10:07:35;17.90;;;8.13;;
65150;SDS011;51918;51.856;0.150;2023-02-08T10:12:37;17.58;;;7.70;;
65150;SDS011;51918;51.856;0.150;2023-02-08T10:18:03;18.83;;;8.65;;
65150;SDS011;51918;51.856;0.150;2023-02-08T10:23:31;16.83;;;8.23;;
65150;SDS011;51918;51.856;0.150;2023-02-08T10:28:49;14.48;;;7.75;;
65150;SDS011;51918;51.856;0.150;2023-02-08T10:34:00;18.00;;;9.35;;
65150;SDS011;51918;51.856;0.150;2023-02-08T10:39:08;15.48;;;9.05;;
65150;SDS011;51918;51.856;0.150;2023-02-08T10:44:17;18.35;;;9.68;;
65150;SDS011;51918;51.856;0.150;2023-02-08T10:49:24;20.67;;;9.85;;
65150;SDS011;51918;51.856;0.150;2023-02-08T10:54:34;19.73;;;10.98;;
65150;SDS011;51918;51.856;0.150;2023-02-08T10:59:35;22.02;;;11.30;;
65150;SDS011;51918;51.856;0.150;2023-02-08T11:04:55;22.25;;;10.93;;
65150;SDS011;51918;51.856;0.150;2023-02-08T11:15:26;21.60;;;11.00;;
65150;SDS011;51918;51.856;0.150;2023-02-08T11:20:30;20.33;;;10.85;;
65150;SDS011;51918;51.856;0.150;2023-02-08T11:25:35;21.45;;;11.27;;
65150;SDS011;51918;51.856;0.150;2023-02-08T11:30:39;24.35;;;11.38;;
65150;SDS011;51918;51.856;0.150;2023-02-08T11:35:40;21.77;;;11.15;;
65150;SDS011;51918;51.856;0.150;2023-02-08T11:40:41;22.73;;;11.13;;
65150;SDS011;51918;51.856;0.150;2023-02-08T11:45:44;26.50;;;12.00;;
65150;SDS011;51918;51.856;0.150;2023-02-08T11:50:46;21.00;;;12.02;;
65150;SDS011;51918;51.856;0.150;2023-02-08T12:01:20;23.85;;;11.48;;
65150;SDS011;51918;51.856;0.150;2023-02-08T12:06:35;20.02;;;11.63;;
65150;SDS011;51918;51.856;0.150;2023-02-08T12:12:04;22.33;;;10.45;;
65150;SDS011;51918;51.856;0.150;2023-02-08T12:17:21;19.75;;;10.63;;
65150;SDS011;51918;51.856;0.150;2023-02-08T12:22:38;18.67;;;10.00;;
65150;SDS011;51918;51.856;0.150;2023-02-08T12:27:44;18.50;;;9.15;;
65150;SDS011;51918;51.856;0.150;2023-02-08T12:32:58;17.58;;;8.23;;
65150;SDS011;51918;51.856;0.150;2023-02-08T12:38:16;17.58;;;9.77;;
65150;SDS011;51918;51.856;0.150;2023-02-08T12:43:33;15.38;;;7.65;;
65150;SDS011;51918;51.856;0.150;2023-02-08T12:48:47;15.43;;;7.68;;
65150;SDS011;51918;51.856;0.150;2023-02-08T12:54:02;13.00;;;6.72;;
65150;SDS011;51918;51.856;0.150;2023-02-08T12:59:10;13.15;;;6.90;;
65150;SDS011;51918;51.856;0.150;2023-02-08T13:04:19;12.48;;;6.78;;
65150;SDS011;51918;51.856;0.150;2023-02-08T13:09:29;16.88;;;8.73;;
65150;SDS011;51918;51.856;0.150;2023-02-08T13:14:39;19.00;;;8.05;;
65150;SDS011;51918;51.856;0.150;2023-02-08T13:19:49;14.95;;;8.05;;
65150;SDS011;51918;51.856;0.150;2023-02-08T13:24:54;15.80;;;7.70;;
65150;SDS011;51918;51.856;0.150;2023-02-08T13:29:56;16.55;;;8.20;;
65150;SDS011;51918;51.856;0.150;2023-02-08T13:34:59;13.50;;;7.97;;
65150;SDS011;51918;51.856;0.150;2023-02-08T13:40:02;16.35;;;7.57;;
65150;SDS011;51918;51.856;0.150;2023-02-08T13:45:06;15.18;;;7.20;;
65150;SDS011;51918;51.856;0.150;2023-02-08T13:55:52;19.95;;;8.40;;
65150;SDS011;51918;51.856;0.150;2023-02-08T14:01:01;12.50;;;6.78;;
65150;SDS011;51918;51.856;0.150;2023-02-08T14:06:18;12.95;;;6.32;;
65150;SDS011;51918;51.856;0.150;2023-02-08T14:11:27;15.88;;;7.53;;
65150;SDS011;51918;51.856;0.150;2023-02-08T14:16:38;14.43;;;7.00;;
65150;SDS011;51918;51.856;0.150;2023-02-08T14:26:43;13.70;;;6.78;;
65150;SDS011;51918;51.856;0.150;2023-02-08T14:31:44;15.38;;;7.72;;
65150;SDS011;51918;51.856;0.150;2023-02-08T14:36:46;15.57;;;6.90;;
65150;SDS011;51918;51.856;0.150;2023-02-08T14:41:58;21.02;;;8.20;;
65150;SDS011;51918;51.856;0.150;2023-02-08T14:46:59;15.70;;;7.28;;
65150;SDS011;51918;51.856;0.150;2023-02-08T14:52:04;17.92;;;8.88;;
65150;SDS011;51918;51.856;0.150;2023-02-08T14:57:13;24.60;;;10.73;;
65150;SDS011;51918;51.856;0.150;2023-02-08T15:02:21;22.85;;;10.75;;
65150;SDS011;51918;51.856;0.150;2023-02-08T15:07:27;30.50;;;11.98;;
65150;SDS011;51918;51.856;0.150;2023-02-08T15:12:34;27.45;;;12.68;;
65150;SDS011;51918;51.856;0.150;2023-02-08T15:17:39;29.67;;;14.25;;
65150;SDS011;51918;51.856;0.150;2023-02-08T15:22:44;31.63;;;13.30;;
65150;SDS011;51918;51.856;0.150;2023-02-08T15:27:45;30.92;;;12.77;;
65150;SDS011;51918;51.856;0.150;2023-02-08T15:32:47;28.30;;;12.43;;
65150;SDS011;51918;51.856;0.150;2023-02-08T15:37:49;26.60;;;12.07;;
65150;SDS011;51918;51.856;0.150;2023-02-08T15:47:50;26.33;;;13.13;;
65150;SDS011;51918;51.856;0.150;2023-02-08T15:52:55;30.77;;;14.43;;
65150;SDS011;51918;51.856;0.150;2023-02-08T15:57:58;29.63;;;13.20;;
65150;SDS011;51918;51.856;0.150;2023-02-08T16:03:02;29.02;;;13.05;;
65150;SDS011;51918;51.856;0.150;2023-02-08T16:08:07;30.67;;;13.27;;
65150;SDS011;51918;51.856;0.150;2023-02-08T16:13:19;29.92;;;12.27;;
65150;SDS011;51918;51.856;0.150;2023-02-08T16:18:37;24.80;;;11.18;;
65150;SDS011;51918;51.856;0.150;2023-02-08T16:23:46;24.73;;;11.13;;
65150;SDS011;51918;51.856;0.150;2023-02-08T16:28:52;22.85;;;10.45;;
65150;SDS011;51918;51.856;0.150;2023-02-08T16:33:55;28.90;;;11.43;;
65150;SDS011;51918;51.856;0.150;2023-02-08T16:44:33;24.48;;;10.43;;
65150;SDS011;51918;51.856;0.150;2023-02-08T16:49:35;26.08;;;10.77;;
65150;SDS011;51918;51.856;0.150;2023-02-08T16:54:37;21.30;;;9.55;;
65150;SDS011;51918;51.856;0.150;2023-02-08T16:59:37;23.85;;;9.77;;
65150;SDS011;51918;51.856;0.150;2023-02-08T17:04:38;20.88;;;9.52;;
65150;SDS011;51918;51.856;0.150;2023-02-08T17:09:40;17.77;;;9.20;;
65150;SDS011;51918;51.856;0.150;2023-02-08T17:14:41;19.50;;;9.13;;
65150;SDS011;51918;51.856;0.150;2023-02-08T17:19:42;23.23;;;9.75;;
65150;SDS011;51918;51.856;0.150;2023-02-08T17:24:44;22.00;;;9.13;;
65150;SDS011;51918;51.856;0.150;2023-02-08T17:29:44;19.48;;;9.55;;
65150;SDS011;51918;51.856;0.150;2023-02-08T17:34:45;23.90;;;10.20;;
65150;SDS011;51918;51.856;0.150;2023-02-08T17:39:47;25.08;;;9.63;;
65150;SDS011;51918;51.856;0.150;2023-02-08T17:44:47;24.35;;;9.95;;
65150;SDS011;51918;51.856;0.150;2023-02-08T17:49:48;31.40;;;11.80;;
65150;SDS011;51918;51.856;0.150;2023-02-08T17:54:50;23.58;;;10.25;;
65150;SDS011;51918;51.856;0.150;2023-02-08T17:59:51;21.83;;;10.38;;
65150;SDS011;51918;51.856;0.150;2023-02-08T18:04:51;22.25;;;8.95;;
65150;SDS011;51918;51.856;0.150;2023-02-08T18:09:55;22.30;;;10.02;;
65150;SDS011;51918;51.856;0.150;2023-02-08T18:14:55;24.95;;;11.40;;
65150;SDS011;51918;51.856;0.150;2023-02-08T18:19:56;23.55;;;10.63;;
65150;SDS011;51918;51.856;0.150;2023-02-08T18:24:58;27.70;;;10.93;;
65150;SDS011;51918;51.856;0.150;2023-02-08T18:29:59;28.63;;;10.77;;
65150;SDS011;51918;51.856;0.150;2023-02-08T18:35:00;26.77;;;10.77;;
65150;SDS011;51918;51.856;0.150;2023-02-08T18:40:02;28.27;;;11.20;;
65150;SDS011;51918;51.856;0.150;2023-02-08T18:45:04;30.05;;;11.48;;
65150;SDS011;51918;51.856;0.150;2023-02-08T18:50:05;31.88;;;12.77;;
65150;SDS011;51918;51.856;0.150;2023-02-08T18:55:08;37.20;;;14.27;;
65150;SDS011;51918;51.856;0.150;2023-02-08T19:00:09;36.58;;;15.38;;
65150;SDS011;51918;51.856;0.150;2023-02-08T19:05:11;40.40;;;16.42;;
65150;SDS011;51918;51.856;0.150;2023-02-08T19:10:13;39.38;;;17.83;;
65150;SDS011;51918;51.856;0.150;2023-02-08T19:15:14;36.63;;;15.48;;
65150;SDS011;51918;51.856;0.150;2023-02-08T19:20:14;32.30;;;16.30;;
65150;SDS011;51918;51.856;0.150;2023-02-08T19:25:17;32.95;;;14.70;;
65150;SDS011;51918;51.856;0.150;2023-02-08T19:30:17;33.45;;;16.52;;
65150;SDS011;51918;51.856;0.150;2023-02-08T19:35:18;34.40;;;16.23;;
65150;SDS011;51918;51.856;0.150;2023-02-08T19:40:20;32.30;;;14.00;;
65150;SDS011;51918;51.856;0.150;2023-02-08T19:45:21;28.92;;;13.25;;
65150;SDS011;51918;51.856;0.150;2023-02-08T19:50:21;29.75;;;13.10;;
65150;SDS011;51918;51.856;0.150;2023-02-08T19:55:23;31.55;;;13.52;;
65150;SDS011;51918;51.856;0.150;2023-02-08T20:00:24;31.30;;;12.43;;
65150;SDS011;51918;51.856;0.150;2023-02-08T20:05:25;30.02;;;12.10;;
65150;SDS011;51918;51.856;0.150;2023-02-08T20:10:26;25.40;;;11.57;;
65150;SDS011;51918;51.856;0.150;2023-02-08T20:15:27;31.40;;;12.48;;
65150;SDS011;51918;51.856;0.150;2023-02-08T20:20:28;28.55;;;11.57;;
65150;SDS011;51918;51.856;0.150;2023-02-08T20:25:30;28.10;;;11.98;;
65150;SDS011;51918;51.856;0.150;2023-02-08T20:30:31;26.55;;;12.00;;
65150;SDS011;51918;51.856;0.150;2023-02-08T20:35:32;28.60;;;12.57;;
65150;SDS011;51918;51.856;0.150;2023-02-08T20:40:36;32.38;;;14.40;;
65150;SDS011;51918;51.856;0.150;2023-02-08T20:45:38;33.42;;;14.23;;
65150;SDS011;51918;51.856;0.150;2023-02-08T20:50:39;30.92;;;13.57;;
65150;SDS011;51918;51.856;0.150;2023-02-08T20:55:41;37.53;;;15.70;;
65150;SDS011;51918;51.856;0.150;2023-02-08T21:00:42;34.58;;;14.05;;
65150;SDS011;51918;51.856;0.150;2023-02-08T21:05:43;38.30;;;13.90;;
65150;SDS011;51918;51.856;0.150;2023-02-08T21:10:45;32.72;;;13.93;;
65150;SDS011;51918;51.856;0.150;2023-02-08T21:15:46;35.05;;;14.27;;
65150;SDS011;51918;51.856;0.150;2023-02-08T21:20:48;32.15;;;15.13;;
65150;SDS011;51918;51.856;0.150;2023-02-08T21:25:50;35.05;;;14.93;;
65150;SDS011;51918;51.856;0.150;2023-02-08T21:30:54;46.42;;;22.17;;
65150;SDS011;51918;51.856;0.150;2023-02-08T21:35:55;42.33;;;19.83;;
65150;SDS011;51918;51.856;0.150;2023-02-08T21:41:05;38.25;;;15.25;;
65150;SDS011;51918;51.856;0.150;2023-02-08T21:46:06;28.80;;;13.20;;
65150;SDS011;51918;51.856;0.150;2023-02-08T21:51:08;38.10;;;14.55;;
65150;SDS011;51918;51.856;0.150;2023-02-08T21:56:09;30.98;;;14.20;;
65150;SDS011;51918;51.856;0.150;2023-02-08T22:01:10;33.88;;;13.95;;
65150;SDS011;51918;51.856;0.150;2023-02-08T22:06:11;30.13;;;13.95;;
65150;SDS011;51918;51.856;0.150;2023-02-08T22:11:13;33.78;;;13.75;;
65150;SDS011;51918;51.856;0.150;2023-02-08T22:16:14;31.98;;;14.30;;
65150;SDS011;51918;51.856;0.150;2023-02-08T22:21:14;33.53;;;13.52;;
65150;SDS011;51918;51.856;0.150;2023-02-08T22:26:16;33.35;;;14.27;;
65150;SDS011;51918;51.856;0.150;2023-02-08T22:31:18;31.52;;;15.50;;
65150;SDS011;51918;51.856;0.150;2023-02-08T22:36:19;35.50;;;13.40;;
65150;SDS011;51918;51.856;0.150;2023-02-08T22:41:21;35.65;;;14.85;;
65150;SDS011;51918;51.856;0.150;2023-02-08T22:46:22;28.73;;;12.50;;
65150;SDS011;51918;51.856;0.150;2023-02-08T22:51:22;39.63;;;15.18;;
65150;SDS011;51918;51.856;0.150;2023-02-08T22:56:24;36.70;;;15.05;;
65150;SDS011;51918;51.856;0.150;2023-02-08T23:01:25;31.10;;;14.65;;
65150;SDS011;51918;51.856;0.150;2023-02-08T23:06:26;33.17;;;14.75;;
65150;SDS011;51918;51.856;0.150;2023-02-08T23:11:28;34.47;;;14.80;;
65150;SDS011;51918;51.856;0.150;2023-02-08T23:16:28;35.22;;;14.50;;
65150;SDS011;51918;51.856;0.150;2023-02-08T23:21:29;36.47;;;15.30;;
65150;SDS011;51918;51.856;0.150;2023-02-08T23:26:31;36.72;;;14.43;;
65150;SDS011;51918;51.856;0.150;2023-02-08T23:31:32;31.63;;;13.27;;
65150;SDS011;51918;51.856;0.150;2023-02-08T23:36:32;30.42;;;12.35;;
65150;SDS011;51918;51.856;0.150;2023-02-08T23:41:34;39.38;;;15.32;;
65150;SDS011;51918;51.856;0.150;2023-02-08T23:46:35;31.85;;;13.73;;
65150;SDS011;51918;51.856;0.150;2023-02-08T23:51:35;33.63;;;14.03;;
65150;SDS011;51918;51.856;0.150;2023-02-08T23:56:37;38.45;;;14.77;;
